createdAt,value
2023-03-22T00:00:46.533Z,53.19
2023-03-22T00:03:12.913Z,53.09
2023-03-22T00:05:40.225Z,52.79
2023-03-22T00:08:07.206Z,52.82
2023-03-22T00:10:34.753Z,52.49
2023-03-22T00:13:01.109Z,52.62
2023-03-22T00:15:29.596Z,52.90
2023-03-22T00:17:59.101Z,52.83
2023-03-22T00:20:26.386Z,53.10
2023-03-22T00:22:52.775Z,53.67
2023-03-22T00:25:19.212Z,53.01
2023-03-22T00:27:45.646Z,53.12
2023-03-22T00:30:12.212Z,53.34
2023-03-22T00:32:39.079Z,53.19
2023-03-22T00:35:05.958Z,53.76
2023-03-22T00:37:34.399Z,53.46
2023-03-22T00:40:01.309Z,52.96
2023-03-22T00:42:27.652Z,53.03
2023-03-22T00:44:54.061Z,53.28
2023-03-22T00:47:20.464Z,53.44
2023-03-22T00:49:46.832Z,53.16
2023-03-22T00:52:13.218Z,53.24
2023-03-22T00:54:39.668Z,53.68
2023-03-22T00:57:06.098Z,53.49
2023-03-22T00:59:32.498Z,53.29
2023-03-22T01:01:59.122Z,53.45
2023-03-22T01:04:26.339Z,53.02
2023-03-22T01:06:59.221Z,53.26
2023-03-22T01:09:28.362Z,53.02
2023-03-22T01:11:56.306Z,52.93
2023-03-22T01:14:23.364Z,53.07
2023-03-22T01:16:50.321Z,52.92
2023-03-22T01:19:17.866Z,53.02
2023-03-22T01:21:44.249Z,53.00
2023-03-22T01:24:10.636Z,52.78
2023-03-22T01:26:37.727Z,53.09
2023-03-22T01:29:04.152Z,52.77
2023-03-22T01:31:30.631Z,52.61
2023-03-22T01:33:56.988Z,53.52
2023-03-22T01:36:23.377Z,52.67
2023-03-22T01:38:49.773Z,53.07
2023-03-22T01:41:16.804Z,52.85
2023-03-22T01:43:43.210Z,53.14
2023-03-22T01:46:09.664Z,52.92
2023-03-22T01:48:42.158Z,53.16
2023-03-22T01:51:10.567Z,53.90
2023-03-22T01:53:41.117Z,53.48
2023-03-22T01:56:07.910Z,53.07
2023-03-22T01:58:35.961Z,52.79
2023-03-22T02:01:03.896Z,52.77
2023-03-22T02:03:45.933Z,53.15
2023-03-22T02:06:12.384Z,52.83
2023-03-22T02:08:40.817Z,53.88
2023-03-22T02:11:07.630Z,53.27
2023-03-22T02:13:52.736Z,53.23
2023-03-22T02:16:29.809Z,53.71
2023-03-22T02:19:15.304Z,54.19
2023-03-22T02:22:00.181Z,53.66
2023-03-22T02:24:46.300Z,52.99
2023-03-22T02:27:41.968Z,53.81
2023-03-22T02:30:11.585Z,53.82
2023-03-22T02:32:37.945Z,53.62
2023-03-22T02:35:07.394Z,53.16
2023-03-22T02:37:33.829Z,53.51
2023-03-22T02:40:10.689Z,53.46
2023-03-22T02:42:48.554Z,53.49
2023-03-22T02:45:18.097Z,53.85
2023-03-22T02:47:54.567Z,53.83
2023-03-22T02:50:40.165Z,53.22
2023-03-22T02:53:09.817Z,54.23
2023-03-22T02:55:48.916Z,53.26
2023-03-22T02:58:18.075Z,53.62
2023-03-22T03:00:46.544Z,53.54
2023-03-22T03:03:18.227Z,53.37
2023-03-22T03:05:51.031Z,53.08
2023-03-22T03:08:18.086Z,54.56
2023-03-22T03:10:45.141Z,53.83
2023-03-22T03:13:15.821Z,53.47
2023-03-22T03:15:43.920Z,53.44
2023-03-22T03:18:26.395Z,53.40
2023-03-22T03:21:04.534Z,53.54
2023-03-22T03:23:39.972Z,53.39
2023-03-22T03:26:20.216Z,54.12
2023-03-22T03:28:52.282Z,54.42
2023-03-22T03:31:28.487Z,53.36
2023-03-22T03:33:59.706Z,53.51
2023-03-22T03:36:26.822Z,53.17
2023-03-22T03:38:54.647Z,53.31
2023-03-22T03:41:23.691Z,53.50
2023-03-22T03:43:51.373Z,53.51
2023-03-22T03:46:17.866Z,53.34
2023-03-22T03:48:47.778Z,53.63
2023-03-22T03:51:14.155Z,53.50
2023-03-22T03:53:40.509Z,53.31
2023-03-22T03:56:07.199Z,53.88
2023-03-22T03:58:33.555Z,53.62
2023-03-22T04:00:59.965Z,53.90
2023-03-22T04:03:26.348Z,53.52
2023-03-22T04:05:52.958Z,53.20
2023-03-22T04:08:19.385Z,53.24
2023-03-22T04:10:49.474Z,53.45
2023-03-22T04:13:15.880Z,53.08
2023-03-22T04:15:42.371Z,53.42
2023-03-22T04:18:11.300Z,53.13
2023-03-22T04:20:41.801Z,52.96
2023-03-22T04:23:11.075Z,53.33
2023-03-22T04:25:38.074Z,53.29
2023-03-22T04:28:04.970Z,53.40
2023-03-22T04:30:36.441Z,53.68
2023-03-22T04:33:08.740Z,53.71
2023-03-22T04:35:35.423Z,53.22
2023-03-22T04:38:02.200Z,53.40
2023-03-22T04:40:31.707Z,53.62
2023-03-22T04:42:58.971Z,53.64
2023-03-22T04:45:29.346Z,53.35
2023-03-22T04:47:56.284Z,53.75
2023-03-22T04:50:22.952Z,53.08
2023-03-22T04:52:50.052Z,53.44
2023-03-22T04:55:16.739Z,53.50
2023-03-22T04:57:43.244Z,53.60
2023-03-22T05:00:10.060Z,53.61
2023-03-22T05:02:41.076Z,53.54
2023-03-22T05:05:07.822Z,53.48
2023-03-22T05:07:34.240Z,53.09
2023-03-22T05:10:00.685Z,53.42
2023-03-22T05:12:27.130Z,53.30
2023-03-22T05:14:53.542Z,54.01
2023-03-22T05:17:20.094Z,54.00
2023-03-22T05:19:46.568Z,54.59
2023-03-22T05:22:14.016Z,53.65
2023-03-22T05:24:40.860Z,53.98
2023-03-22T05:27:07.313Z,54.12
2023-03-22T05:29:37.068Z,54.19
2023-03-22T05:32:04.140Z,54.06
2023-03-22T05:34:35.677Z,54.20
2023-03-22T05:37:02.697Z,54.09
2023-03-22T05:39:29.154Z,53.84
2023-03-22T05:41:55.805Z,53.56
2023-03-22T05:44:22.189Z,53.84
2023-03-22T05:46:48.686Z,53.63
2023-03-22T05:49:15.436Z,53.63
2023-03-22T05:51:42.712Z,53.59
2023-03-22T05:54:09.733Z,54.11
2023-03-22T05:56:36.181Z,53.73
2023-03-22T05:59:03.322Z,53.58
2023-03-22T06:01:29.659Z,53.48
2023-03-22T06:03:56.045Z,53.67
2023-03-22T06:06:22.381Z,53.64
2023-03-22T06:08:48.731Z,53.60
2023-03-22T06:11:15.502Z,53.89
2023-03-22T06:13:41.947Z,53.51
2023-03-22T06:16:08.457Z,53.79
2023-03-22T06:18:34.903Z,53.50
2023-03-22T06:21:01.566Z,53.51
2023-03-22T06:23:28.155Z,53.73
2023-03-22T06:25:54.855Z,53.77
2023-03-22T06:28:21.586Z,53.83
2023-03-22T06:30:48.220Z,54.40
2023-03-22T06:33:14.715Z,53.50
2023-03-22T06:35:41.229Z,53.72
2023-03-22T06:38:07.765Z,54.54
2023-03-22T06:40:35.805Z,53.84
2023-03-22T06:43:05.659Z,53.99
2023-03-22T06:45:33.606Z,53.97
2023-03-22T06:48:01.019Z,53.81
2023-03-22T06:50:28.215Z,53.30
2023-03-22T06:52:55.000Z,53.83
2023-03-22T06:55:21.426Z,53.59
2023-03-22T06:57:47.771Z,53.94
2023-03-22T07:00:14.459Z,54.34
2023-03-22T07:02:41.007Z,53.51
2023-03-22T07:05:07.591Z,54.25
2023-03-22T07:07:33.931Z,53.40
2023-03-22T07:10:00.427Z,53.76
2023-03-22T07:12:26.777Z,53.13
2023-03-22T07:14:53.283Z,53.67
2023-03-22T07:17:19.638Z,53.72
2023-03-22T07:19:46.032Z,52.99
2023-03-22T07:22:12.432Z,53.19
2023-03-22T07:24:50.326Z,53.86
2023-03-22T07:27:22.424Z,53.76
2023-03-22T07:29:48.798Z,53.30
2023-03-22T07:32:16.453Z,53.54
2023-03-22T07:34:42.994Z,54.02
2023-03-22T07:37:09.577Z,53.95
2023-03-22T07:39:36.037Z,54.04
2023-03-22T07:42:02.819Z,53.74
2023-03-22T07:44:29.419Z,53.75
2023-03-22T07:46:56.382Z,53.93
2023-03-22T07:49:22.773Z,54.13
2023-03-22T07:51:49.138Z,53.97
2023-03-22T07:54:30.612Z,53.83
2023-03-22T07:56:59.398Z,53.87
2023-03-22T07:59:25.998Z,53.72
2023-03-22T08:01:52.507Z,53.90
2023-03-22T08:04:20.964Z,53.94
2023-03-22T08:06:47.382Z,53.75
2023-03-22T08:09:13.935Z,53.58
2023-03-22T08:11:40.530Z,53.87
2023-03-22T08:14:06.971Z,53.49
2023-03-22T08:16:33.621Z,53.29
2023-03-22T08:19:00.805Z,53.21
2023-03-22T08:21:27.480Z,53.28
2023-03-22T08:23:53.909Z,52.73
2023-03-22T08:26:20.432Z,52.75
2023-03-22T08:28:46.851Z,53.00
2023-03-22T08:31:15.321Z,53.00
2023-03-22T08:33:42.385Z,52.61
2023-03-22T08:36:10.442Z,52.04
2023-03-22T08:38:37.229Z,51.98
2023-03-22T08:41:03.703Z,52.11
2023-03-22T08:43:30.218Z,52.40
2023-03-22T08:45:57.179Z,52.36
2023-03-22T08:48:23.749Z,52.20
2023-03-22T08:50:50.487Z,52.00
2023-03-22T08:53:16.951Z,52.10
2023-03-22T08:55:44.976Z,51.24
2023-03-22T08:58:14.966Z,51.11
2023-03-22T09:00:48.752Z,51.60
2023-03-22T09:03:16.309Z,51.41
2023-03-22T09:05:42.916Z,51.15
2023-03-22T09:08:18.173Z,50.54
2023-03-22T09:10:47.975Z,51.04
2023-03-22T09:13:16.632Z,50.77
2023-03-22T09:15:44.110Z,50.67
2023-03-22T09:18:11.787Z,50.71
2023-03-22T09:20:38.853Z,50.20
2023-03-22T09:23:05.879Z,49.76
2023-03-22T09:25:32.459Z,50.66
2023-03-22T09:27:58.915Z,50.33
2023-03-22T09:30:25.332Z,50.78
2023-03-22T09:32:51.860Z,50.74
2023-03-22T09:35:18.610Z,50.24
2023-03-22T09:37:45.668Z,50.01
2023-03-22T09:40:12.335Z,50.04
2023-03-22T09:42:42.296Z,50.49
2023-03-22T09:45:13.458Z,50.35
2023-03-22T09:47:45.056Z,50.45
2023-03-22T09:50:18.804Z,49.67
2023-03-22T09:52:45.298Z,49.78
2023-03-22T09:55:38.465Z,49.10
2023-03-22T09:58:19.882Z,49.04
2023-03-22T10:00:49.301Z,49.64
2023-03-22T10:03:25.909Z,47.80
2023-03-22T10:05:55.458Z,48.38
2023-03-22T10:08:24.856Z,48.96
2023-03-22T10:10:52.724Z,49.25
2023-03-22T10:13:39.918Z,48.84
2023-03-22T10:16:23.916Z,48.87
2023-03-22T10:18:52.070Z,48.98
2023-03-22T10:21:19.459Z,49.25
2023-03-22T10:23:51.907Z,48.86
2023-03-22T10:26:20.092Z,47.48
2023-03-22T10:28:49.701Z,48.82
2023-03-22T10:31:17.980Z,48.42
2023-03-22T10:33:58.781Z,48.46
2023-03-22T10:36:31.234Z,47.17
2023-03-22T10:39:00.779Z,48.31
2023-03-22T10:41:28.583Z,46.92
2023-03-22T10:43:57.308Z,48.69
2023-03-22T10:46:25.715Z,47.55
2023-03-22T10:48:57.155Z,47.65
2023-03-22T10:51:34.263Z,47.36
2023-03-22T10:54:02.270Z,47.18
2023-03-22T10:56:28.851Z,47.56
2023-03-22T10:58:57.216Z,46.35
2023-03-22T11:01:26.705Z,47.02
2023-03-22T11:03:56.422Z,44.33
2023-03-22T11:06:24.271Z,46.54
2023-03-22T11:08:54.606Z,46.32
2023-03-22T11:11:25.669Z,46.84
2023-03-22T11:13:59.015Z,47.11
2023-03-22T11:16:25.819Z,46.99
2023-03-22T11:18:52.293Z,46.23
2023-03-22T11:21:31.683Z,45.85
2023-03-22T11:24:03.732Z,47.13
2023-03-22T11:26:37.285Z,46.10
2023-03-22T11:29:11.858Z,42.81
2023-03-22T11:31:50.747Z,42.00
2023-03-22T11:34:19.242Z,43.13
2023-03-22T11:39:33.864Z,43.18
2023-03-22T11:42:03.761Z,41.44
2023-03-22T11:44:34.013Z,40.07
2023-03-22T11:47:01.414Z,43.40
2023-03-22T11:49:35.493Z,42.82
2023-03-22T11:52:07.724Z,44.00
2023-03-22T11:54:35.757Z,42.49
2023-03-22T11:57:09.680Z,41.91
2023-03-22T11:59:37.699Z,43.21
2023-03-22T12:02:09.624Z,42.77
2023-03-22T12:04:38.045Z,42.84
2023-03-22T12:07:06.842Z,42.26
2023-03-22T12:09:48.664Z,41.45
2023-03-22T12:12:21.661Z,43.49
2023-03-22T12:14:51.864Z,43.03
2023-03-22T12:17:37.701Z,42.32
2023-03-22T12:20:07.389Z,43.09
2023-03-22T12:22:45.821Z,42.95
2023-03-22T12:25:17.533Z,42.50
2023-03-22T12:27:47.399Z,42.83
2023-03-22T12:30:16.337Z,43.39
2023-03-22T12:32:49.020Z,43.80
2023-03-22T12:35:18.501Z,43.95
2023-03-22T12:37:47.595Z,42.76
2023-03-22T12:40:28.517Z,43.56
2023-03-22T12:43:01.256Z,40.82
2023-03-22T12:45:28.766Z,41.26
2023-03-22T12:48:16.225Z,41.42
2023-03-22T12:50:48.793Z,39.82
2023-03-22T12:53:16.468Z,41.48
2023-03-22T12:55:43.925Z,42.52
2023-03-22T12:58:12.945Z,42.28
2023-03-22T13:00:45.364Z,42.92
2023-03-22T13:03:18.216Z,41.47
2023-03-22T13:05:46.114Z,41.58
2023-03-22T13:08:13.068Z,40.70
2023-03-22T13:10:41.931Z,42.06
2023-03-22T13:13:08.719Z,41.14
2023-03-22T13:15:42.070Z,41.67
2023-03-22T13:18:27.487Z,39.47
2023-03-22T13:21:13.349Z,40.19
2023-03-22T13:23:53.430Z,39.92
2023-03-22T13:26:22.173Z,40.67
2023-03-22T13:28:59.154Z,42.40
2023-03-22T13:31:36.086Z,40.83
2023-03-22T13:34:04.534Z,40.51
2023-03-22T13:36:32.071Z,41.80
2023-03-22T13:39:00.066Z,41.94
2023-03-22T13:41:35.940Z,41.95
2023-03-22T13:44:19.067Z,41.46
2023-03-22T13:46:49.243Z,42.39
2023-03-22T13:49:20.765Z,43.04
2023-03-22T13:51:47.820Z,42.69
2023-03-22T13:54:14.973Z,42.34
2023-03-22T13:56:53.042Z,42.78
2023-03-22T13:59:33.953Z,42.35
2023-03-22T14:02:10.920Z,42.21
2023-03-22T14:04:41.070Z,42.96
2023-03-22T14:07:27.770Z,41.95
2023-03-22T14:10:02.613Z,41.14
2023-03-22T14:12:47.655Z,42.65
2023-03-22T14:15:18.926Z,41.57
2023-03-22T14:17:50.605Z,40.87
2023-03-22T14:20:19.245Z,41.17
